createdAt,value
2023-04-13T00:00:24.225Z,99112.97
2023-04-13T00:05:28.369Z,99111.78
2023-04-13T00:10:36.488Z,99110.47
2023-04-13T00:15:43.240Z,99109.13
2023-04-13T00:20:46.828Z,99106.59
2023-04-13T00:25:50.094Z,99113.69
2023-04-13T00:30:53.173Z,99104.25
2023-04-13T00:35:56.419Z,99096.81
2023-04-13T00:40:59.511Z,99097.09
2023-04-13T00:46:02.539Z,99096.09
2023-04-13T00:51:06.096Z,99098.25
2023-04-13T00:56:10.183Z,99093.78
2023-04-13T01:01:13.002Z,99101.34
2023-04-13T01:06:44.192Z,99101.00
2023-04-13T01:12:02.721Z,99103.31
2023-04-13T01:17:17.699Z,99091.06
2023-04-13T01:22:25.742Z,99078.53
2023-04-13T01:27:55.731Z,99082.00
2023-04-13T01:33:02.389Z,99090.44
2023-04-13T01:38:07.054Z,99090.63
2023-04-13T01:43:10.352Z,99091.44
2023-04-13T01:48:31.849Z,99091.44
2023-04-13T01:53:47.647Z,99092.75
2023-04-13T01:58:58.182Z,99095.22
2023-04-13T02:04:02.835Z,99091.56
2023-04-13T02:09:09.230Z,99092.06
2023-04-13T02:14:12.327Z,99092.69
2023-04-13T02:19:15.293Z,99091.88
2023-04-13T02:24:18.266Z,99094.50
2023-04-13T02:29:21.733Z,99087.59
2023-04-13T02:34:24.796Z,99090.22
2023-04-13T02:39:27.846Z,99094.34
2023-04-13T02:44:31.156Z,99093.69
2023-04-13T02:49:34.366Z,99099.63
2023-04-13T02:54:37.472Z,99093.34
2023-04-13T02:59:40.848Z,99100.97
2023-04-13T03:04:44.458Z,99094.69
2023-04-13T03:09:48.312Z,99096.84
2023-04-13T03:14:51.654Z,99098.16
2023-04-13T03:19:54.602Z,99093.34
2023-04-13T03:24:57.492Z,99082.56
2023-04-13T03:30:00.571Z,99085.22
2023-04-13T03:35:03.998Z,99085.06
2023-04-13T03:40:10.925Z,99078.97
2023-04-13T03:45:13.996Z,99075.50
2023-04-13T03:50:17.186Z,99088.72
2023-04-13T03:55:20.390Z,99084.06
2023-04-13T04:00:23.576Z,99091.00
2023-04-13T04:05:26.542Z,99089.34
2023-04-13T04:10:29.400Z,99093.13
2023-04-13T04:15:32.359Z,99090.09
2023-04-13T04:20:35.387Z,99093.06
2023-04-13T04:25:39.983Z,99094.53
2023-04-13T04:30:45.934Z,99090.53
2023-04-13T04:35:52.191Z,99098.13
2023-04-13T04:40:57.819Z,99096.22
2023-04-13T04:46:03.234Z,99096.19
2023-04-13T04:51:08.550Z,99097.31
2023-04-13T04:56:11.595Z,99089.28
2023-04-13T05:01:14.458Z,99087.56
2023-04-13T05:06:17.420Z,99081.47
2023-04-13T05:11:21.430Z,99092.59
2023-04-13T05:16:26.514Z,99092.41
2023-04-13T05:21:31.594Z,99085.41
2023-04-13T05:26:35.008Z,99088.97
2023-04-13T05:31:38.152Z,99088.63
2023-04-13T05:36:41.523Z,99082.19
2023-04-13T05:41:44.506Z,99088.63
2023-04-13T05:46:50.609Z,99081.47
2023-04-13T05:51:54.775Z,99086.50
2023-04-13T05:56:57.791Z,99085.28
2023-04-13T06:02:03.089Z,99086.19
2023-04-13T06:07:06.946Z,99089.13
2023-04-13T06:12:10.379Z,99090.44
2023-04-13T06:17:13.379Z,99088.22
2023-04-13T06:22:16.863Z,99085.66
2023-04-13T06:27:19.879Z,99086.03
2023-04-13T06:32:22.812Z,99085.69
2023-04-13T06:37:25.886Z,99094.72
2023-04-13T06:42:28.874Z,99096.81
2023-04-13T06:47:32.384Z,99088.91
2023-04-13T06:52:36.343Z,99099.00
2023-04-13T06:57:39.997Z,99099.66
2023-04-13T07:02:43.394Z,99090.94
2023-04-13T07:07:46.606Z,99105.75
2023-04-13T07:12:50.118Z,99100.00
2023-04-13T07:17:53.498Z,99112.72
2023-04-13T07:22:56.454Z,99107.41
2023-04-13T07:27:59.386Z,99109.66
2023-04-13T07:33:02.548Z,99106.19
2023-04-13T07:38:06.614Z,99105.31
2023-04-13T07:43:09.709Z,99104.66
2023-04-13T07:48:12.998Z,99109.34
2023-04-13T07:53:16.334Z,99108.47
2023-04-13T07:58:19.430Z,99110.25
2023-04-13T08:03:22.368Z,99115.31
2023-04-13T08:08:25.404Z,99106.50
2023-04-13T08:13:30.101Z,99110.94
2023-04-13T08:18:33.347Z,99117.19
2023-04-13T08:23:37.423Z,99107.50
2023-04-13T08:28:40.431Z,99109.25
2023-04-13T08:33:43.795Z,99102.22
2023-04-13T08:38:47.145Z,99102.84
2023-04-13T08:43:51.668Z,99097.94
2023-04-13T08:48:56.803Z,99093.59
2023-04-13T08:54:00.150Z,99092.38
2023-04-13T08:59:07.598Z,99083.09
2023-04-13T09:04:14.499Z,99086.97
2023-04-13T09:09:21.176Z,99068.44
2023-04-13T09:14:25.367Z,99072.03
2023-04-13T09:19:33.249Z,99056.97
2023-04-13T09:24:41.246Z,99055.28
2023-04-13T09:29:56.453Z,99058.34
2023-04-13T09:35:08.464Z,99057.53
2023-04-13T09:40:14.828Z,99057.53
2023-04-13T09:45:17.985Z,99052.25
2023-04-13T09:50:28.504Z,99058.69
2023-04-13T09:55:39.765Z,99051.97
2023-04-13T10:00:46.775Z,99058.38
2023-04-13T10:05:59.623Z,99068.75
2023-04-13T10:11:04.484Z,99068.16
2023-04-13T10:16:16.608Z,99068.53
2023-04-13T10:21:20.154Z,99074.53
2023-04-13T10:26:33.690Z,99067.63
2023-04-13T10:31:49.349Z,99064.63
2023-04-13T10:36:55.443Z,99062.16
2023-04-13T10:42:10.168Z,99067.97
2023-04-13T10:47:15.241Z,99058.56
2023-04-13T10:52:18.712Z,99066.00
2023-04-13T10:57:21.916Z,99048.41
2023-04-13T11:02:33.135Z,99030.66
2023-04-13T11:07:39.357Z,99026.59
2023-04-13T11:12:54.335Z,99035.22
2023-04-13T11:18:00.953Z,99037.66
2023-04-13T11:23:13.465Z,99026.94
2023-04-13T11:28:16.531Z,99026.53
2023-04-13T11:33:30.202Z,99025.34
2023-04-13T11:38:33.337Z,99015.69
2023-04-13T11:43:37.371Z,99011.44
2023-04-13T11:48:40.687Z,99004.59
2023-04-13T11:53:44.126Z,99011.06
2023-04-13T11:58:51.698Z,98990.50
2023-04-13T12:04:12.893Z,98995.31
2023-04-13T12:09:22.199Z,98984.22
2023-04-13T12:24:40.140Z,98967.56
2023-04-13T12:29:43.520Z,98967.97
2023-04-13T12:34:47.305Z,98972.69
2023-04-13T12:39:50.302Z,98955.88
2023-04-13T12:44:55.161Z,98945.56
2023-04-13T12:49:58.185Z,98940.91
2023-04-13T12:55:02.447Z,98943.28
2023-04-13T13:00:10.698Z,98934.31
2023-04-13T13:05:13.685Z,98935.25
2023-04-13T13:10:28.972Z,98930.34
2023-04-13T13:15:33.471Z,98936.56
2023-04-13T13:20:41.444Z,98940.25
2023-04-13T13:25:54.297Z,98936.47
2023-04-13T13:31:00.537Z,98928.19
2023-04-13T13:36:03.732Z,98931.13
2023-04-13T13:41:06.748Z,98923.47
2023-04-13T13:46:11.283Z,98920.63
2023-04-13T13:51:14.591Z,98923.50
2023-04-13T13:56:17.776Z,98917.88
2023-04-13T14:01:21.051Z,98914.53
2023-04-13T14:06:24.044Z,98907.38
2023-04-13T14:11:27.508Z,98905.72
2023-04-13T14:16:30.982Z,98899.88
2023-04-13T14:21:34.009Z,98907.13
2023-04-13T14:26:38.337Z,98908.34
2023-04-13T14:31:41.302Z,98902.16
2023-04-13T14:36:44.824Z,98899.84
2023-04-13T14:41:47.881Z,98894.00
2023-04-13T14:46:50.934Z,98901.31
2023-04-13T14:51:53.949Z,98894.22
2023-04-13T14:56:57.125Z,98896.97
2023-04-13T15:02:01.017Z,98903.28
2023-04-13T15:07:04.377Z,98901.00
2023-04-13T15:12:13.361Z,98905.31
2023-04-13T15:17:16.888Z,98907.63
2023-04-13T15:22:20.537Z,98916.44
2023-04-13T15:27:27.007Z,98911.72
2023-04-13T15:32:30.488Z,98922.56
2023-04-13T15:37:33.606Z,98934.22
2023-04-13T15:42:36.634Z,98935.19
2023-04-13T15:47:39.763Z,98931.91
2023-04-13T15:52:42.586Z,98935.66
2023-04-13T15:57:45.790Z,98934.78
2023-04-13T16:02:48.823Z,98932.31
2023-04-13T16:07:52.662Z,98930.09
2023-04-13T16:12:55.573Z,98927.75
2023-04-13T16:17:58.530Z,98928.16
2023-04-13T16:23:04.876Z,98923.38
2023-04-13T16:28:07.961Z,98918.50
2023-04-13T16:33:11.115Z,98926.72
2023-04-13T16:38:14.191Z,98925.56
2023-04-13T16:43:17.192Z,98928.91
2023-04-13T16:48:21.086Z,98922.84
2023-04-13T16:53:24.134Z,98924.63
2023-04-13T16:58:26.925Z,98923.72
2023-04-13T17:03:30.558Z,98921.94
2023-04-13T17:08:33.601Z,98925.84
2023-04-13T17:13:36.986Z,98927.34
2023-04-13T17:18:40.717Z,98948.09
2023-04-13T17:23:45.021Z,98955.19
2023-04-13T17:28:48.114Z,98954.03
2023-04-13T17:33:51.471Z,98966.63
2023-04-13T17:38:54.461Z,98965.03
2023-04-13T17:43:57.647Z,98969.63
2023-04-13T17:49:00.609Z,98965.53
2023-04-13T17:54:07.898Z,98978.28
2023-04-13T17:59:14.918Z,98979.72
2023-04-13T18:04:18.108Z,98979.97
2023-04-13T18:09:22.536Z,98985.69
2023-04-13T18:14:25.496Z,99000.25
2023-04-13T18:19:30.516Z,99015.59
2023-04-13T18:24:33.477Z,99001.69
2023-04-13T18:29:36.444Z,99006.63
2023-04-13T18:34:42.274Z,99009.09
2023-04-13T18:39:45.576Z,99006.44
2023-04-13T18:44:48.664Z,99015.25
2023-04-13T18:49:51.967Z,99013.78
2023-04-13T18:54:55.308Z,99013.56
2023-04-13T18:59:58.457Z,99008.66
2023-04-13T19:05:01.763Z,99017.63
2023-04-13T19:10:05.753Z,99010.28
2023-04-13T19:15:11.748Z,98993.69
2023-04-13T19:20:14.682Z,98994.91
2023-04-13T19:25:19.433Z,98994.06
2023-04-13T19:30:22.407Z,98996.13
2023-04-13T19:35:26.378Z,99001.84
2023-04-13T19:40:29.505Z,98991.59
2023-04-13T19:45:32.804Z,98979.94
2023-04-13T19:50:35.970Z,98976.06
2023-04-13T19:55:38.809Z,98965.81
2023-04-13T20:00:42.370Z,98960.28
2023-04-13T20:05:46.453Z,98954.13
2023-04-13T20:10:49.581Z,98954.94
2023-04-13T20:15:52.722Z,98942.25
2023-04-13T20:20:55.839Z,98947.56
2023-04-13T20:25:58.677Z,98939.19
2023-04-13T20:31:02.017Z,98934.91
2023-04-13T20:36:05.460Z,98923.63
2023-04-13T20:41:10.528Z,98924.28
2023-04-13T20:46:16.569Z,98923.25
2023-04-13T20:51:22.992Z,98918.97
2023-04-13T20:56:26.431Z,98911.81
2023-04-13T21:01:32.296Z,98909.53
2023-04-13T21:06:35.575Z,98907.31
2023-04-13T21:11:38.549Z,98916.94
2023-04-13T21:16:41.640Z,98908.94
2023-04-13T21:21:44.842Z,98910.59
2023-04-13T21:26:48.317Z,98906.94
2023-04-13T21:31:51.722Z,98915.91
2023-04-13T21:36:54.881Z,98917.31
2023-04-13T21:41:58.175Z,98909.50
2023-04-13T21:47:01.198Z,98911.88
2023-04-13T21:52:04.693Z,98912.22
2023-04-13T21:57:07.720Z,98903.56
2023-04-13T22:02:11.038Z,98908.41
2023-04-13T22:07:14.230Z,98912.22
2023-04-13T22:12:17.232Z,98917.69
2023-04-13T22:17:20.233Z,98900.09
2023-04-13T22:22:23.406Z,98883.53
2023-04-13T22:27:26.430Z,98863.91
2023-04-13T22:32:29.371Z,98866.97
2023-04-13T22:37:32.981Z,98859.38
2023-04-13T22:42:35.988Z,98858.16
2023-04-13T22:47:39.049Z,98854.25
2023-04-13T22:52:41.856Z,98842.94
2023-04-13T22:57:45.640Z,98836.41
2023-04-13T23:02:50.560Z,98827.81
2023-04-13T23:07:54.326Z,98826.38
2023-04-13T23:12:58.093Z,98832.25
2023-04-13T23:18:02.860Z,98822.06
2023-04-13T23:23:06.223Z,98819.75
2023-04-13T23:28:09.971Z,98803.34
2023-04-13T23:33:13.175Z,98798.19
2023-04-13T23:38:16.347Z,98790.00
2023-04-13T23:43:19.347Z,98777.53
2023-04-13T23:48:24.693Z,98774.25
2023-04-13T23:53:27.720Z,98767.75
2023-04-13T23:58:30.712Z,98779.84
